»·PEaware :: AAL237 KLAX-MMSD

AAL237 :: KLAX-MMSD

FLIGHT INFORMATION

Flight Status: Arrived
Operator:
American Airlines
More flights by this operator :: More flights under this callsign
Pilot: Colin A. (19898)
Aircraft: MCDONNELL-DOUGLAS MD-82
(MD82)
More flights by this aircraft type
Origin: KLAX Los Angeles Intl
United States
Destination: MMSD Los Cabos Intl
Mexico
More flights between these airports :: More routes between these airports
Route: PNDAH2 OTAYY TIJ UT6 IMUSU UT25 LTO/N0375F170 V4 ENEKO ENEKO1A
File this flight plan on PilotEdge
Remarks: RMK / SIMBRIEF
Altitude:
(Current/Filed)
33,000ft
Speed:
(Current/Filed)
449kts
Departed: 05-Nov-19 06:26 PM
Arrived: 05-Nov-19 08:30 PM
Distance/Time
Traveled:
792nm/2:04
Distance/Time
To Go:
Arrived

Flight Plot

Page will automatically refresh every two minutes.

Flight plan parsing failed; only flown route is shown


Map Options




Map Legend


Flown Route
Filed Route
Departure Airport
Arrival Airport
Navaid (VOR, NDB)
Fix

Horizontal Profiles

Position Reports

Time Latitude Longitude Heading Altitude Ground
Speed
05-Nov-19 17:57 33.940947 -118.406272 282 135ft 0kts
05-Nov-19 17:58 33.940947 -118.406272 282 135ft 0kts
05-Nov-19 17:59 33.940947 -118.406272 282 135ft 0kts
05-Nov-19 18:00 33.940947 -118.406272 282 135ft 0kts
05-Nov-19 18:01 33.940947 -118.406272 282 135ft 0kts
05-Nov-19 18:02 33.940947 -118.406272 282 135ft 0kts
05-Nov-19 18:03 33.940947 -118.406272 282 135ft 0kts
05-Nov-19 18:04 33.940947 -118.406272 282 135ft 0kts
05-Nov-19 18:05 33.940947 -118.406272 282 135ft 0kts
05-Nov-19 18:07 33.940947 -118.406272 282 135ft 0kts
05-Nov-19 18:08 33.940947 -118.406272 282 135ft 0kts
05-Nov-19 18:09 33.940947 -118.406272 282 135ft 0kts
05-Nov-19 18:10 33.940947 -118.406272 282 135ft 0kts
05-Nov-19 18:11 33.940947 -118.406272 282 135ft 0kts
05-Nov-19 18:12 33.940896 -118.405985 282 135ft 2kts
05-Nov-19 18:13 33.940835 -118.405637 282 135ft 0kts
05-Nov-19 18:14 33.940836 -118.405648 282 135ft 0kts
05-Nov-19 18:15 33.940837 -118.405651 282 135ft 0kts
05-Nov-19 18:16 33.940838 -118.405663 280 135ft 0kts
05-Nov-19 18:17 33.940713 -118.405756 186 135ft 0kts
05-Nov-19 18:18 33.940711 -118.405757 186 135ft 0kts
05-Nov-19 18:19 33.940476 -118.405719 169 135ft 6kts
05-Nov-19 18:20 33.940188 -118.405643 166 135ft 0kts
05-Nov-19 18:21 33.940001 -118.405595 168 135ft 0kts
05-Nov-19 18:22 33.938402 -118.403733 83 135ft 22kts
05-Nov-19 18:23 33.939347 -118.394624 83 135ft 26kts
05-Nov-19 18:24 33.940215 -118.386191 82 135ft 24kts
05-Nov-19 18:25 33.940665 -118.380789 105 135ft 4kts
05-Nov-19 18:25 33.939538 -118.382952 263 135ft 56kts
05-Nov-19 18:26 33.933212 -118.435184 259 1065ft 224kts
05-Nov-19 18:28 33.900437 -118.508444 231 3921ft 217kts
05-Nov-19 18:29 33.857724 -118.564756 213 5944ft 240kts
05-Nov-19 18:29 33.798611 -118.559824 162 6936ft 283kts
05-Nov-19 18:30 33.722147 -118.530434 164 8898ft 292kts
05-Nov-19 18:31 33.667175 -118.460992 113 10306ft 321kts
05-Nov-19 18:32 33.627992 -118.357232 117 11516ft 350kts
05-Nov-19 18:33 33.581842 -118.253001 117 13407ft 359kts
05-Nov-19 18:34 33.535269 -118.145193 117 15226ft 368kts
05-Nov-19 18:35 33.487838 -118.035160 117 16972ft 376kts
05-Nov-19 18:36 33.420700 -117.937933 136 18561ft 385kts
05-Nov-19 18:37 33.339044 -117.851869 140 19983ft 395kts
05-Nov-19 18:38 33.254960 -117.763960 139 21243ft 406kts
05-Nov-19 18:39 33.169524 -117.673666 139 22464ft 414kts
05-Nov-19 18:40 33.084127 -117.579585 137 23549ft 422kts
05-Nov-19 18:41 32.997626 -117.482182 138 24440ft 431kts
05-Nov-19 18:42 32.910923 -117.386110 138 25303ft 438kts
05-Nov-19 18:43 32.820871 -117.287180 138 26185ft 444kts
05-Nov-19 18:44 32.730113 -117.186659 139 26906ft 449kts
05-Nov-19 18:45 32.638456 -117.083867 135 27561ft 456kts
05-Nov-19 18:46 32.554177 -116.970004 133 28161ft 461kts
05-Nov-19 18:47 32.458337 -116.869898 145 28683ft 461kts
05-Nov-19 18:48 32.356112 -116.776808 143 29185ft 465kts
05-Nov-19 18:49 32.255527 -116.678854 142 29665ft 468kts
05-Nov-19 18:50 32.153900 -116.581862 143 30069ft 471kts
05-Nov-19 18:51 32.053614 -116.482665 141 30667ft 469kts
05-Nov-19 18:52 31.955002 -116.383565 141 31281ft 464kts
05-Nov-19 18:53 31.856006 -116.285898 142 31728ft 463kts
05-Nov-19 18:54 31.757192 -116.188355 142 32161ft 462kts
05-Nov-19 18:55 31.656164 -116.096826 145 32540ft 459kts
05-Nov-19 18:56 31.554061 -116.007059 145 32911ft 458kts
05-Nov-19 18:57 31.452688 -115.916446 145 32955ft 457kts
05-Nov-19 18:58 31.351216 -115.827066 144 32900ft 456kts
05-Nov-19 18:59 31.250203 -115.737407 145 32881ft 454kts
05-Nov-19 19:00 31.149209 -115.648744 145 32866ft 454kts
05-Nov-19 19:01 31.048669 -115.560388 144 32807ft 452kts
05-Nov-19 19:02 30.949019 -115.470941 145 32808ft 452kts
05-Nov-19 19:03 30.847883 -115.384000 145 32809ft 451kts
05-Nov-19 19:04 30.747594 -115.296510 143 32811ft 450kts
05-Nov-19 19:05 30.650089 -115.204800 142 32844ft 450kts
05-Nov-19 19:06 30.552367 -115.114292 143 32845ft 449kts
05-Nov-19 19:07 30.454332 -115.024935 143 32847ft 449kts
05-Nov-19 19:08 30.356565 -114.934855 143 32848ft 448kts
05-Nov-19 19:09 30.258675 -114.845313 143 32849ft 448kts
05-Nov-19 19:10 30.160779 -114.756194 143 32850ft 448kts
05-Nov-19 19:11 30.062665 -114.666901 143 32851ft 447kts
05-Nov-19 19:12 29.965394 -114.578582 142 32852ft 445kts
05-Nov-19 19:13 29.867864 -114.490703 142 32854ft 444kts
05-Nov-19 19:14 29.770447 -114.402829 143 32855ft 444kts
05-Nov-19 19:15 29.673674 -114.315446 143 32856ft 444kts
05-Nov-19 19:16 29.576669 -114.227939 143 32858ft 444kts
05-Nov-19 19:17 29.478958 -114.141099 143 32860ft 443kts
05-Nov-19 19:18 29.381577 -114.053923 143 32862ft 443kts
05-Nov-19 19:19 29.284514 -113.967642 142 32864ft 442kts
05-Nov-19 19:20 29.187044 -113.881519 142 32866ft 441kts
05-Nov-19 19:21 29.090669 -113.795372 142 32861ft 440kts
05-Nov-19 19:22 28.993022 -113.711263 143 32849ft 438kts
05-Nov-19 19:23 28.896869 -113.625629 142 32850ft 438kts
05-Nov-19 19:24 28.800676 -113.541023 142 32870ft 437kts
05-Nov-19 19:25 28.704426 -113.456330 142 32907ft 436kts
05-Nov-19 19:26 28.608312 -113.371816 142 32908ft 436kts
05-Nov-19 19:27 28.512128 -113.287771 142 32909ft 436kts
05-Nov-19 19:28 28.415823 -113.204047 142 32909ft 435kts
05-Nov-19 19:29 28.319712 -113.120111 142 32909ft 435kts
05-Nov-19 19:30 28.223514 -113.036673 142 32892ft 435kts
05-Nov-19 19:31 28.127262 -112.953347 142 32888ft 435kts
05-Nov-19 19:32 28.030992 -112.870251 142 32888ft 436kts
05-Nov-19 19:33 27.934912 -112.787162 141 32876ft 433kts
05-Nov-19 19:34 27.838875 -112.704964 142 32869ft 433kts
05-Nov-19 19:35 27.742831 -112.623091 142 32869ft 432kts
05-Nov-19 19:36 27.647120 -112.540952 142 32870ft 433kts
05-Nov-19 19:37 27.564905 -112.470764 142 32870ft 433kts
05-Nov-19 19:38 27.468505 -112.388900 142 32870ft 433kts
05-Nov-19 19:39 27.373016 -112.307008 141 32870ft 432kts
05-Nov-19 19:40 27.274266 -112.229905 148 32871ft 433kts
05-Nov-19 19:41 27.170045 -112.161786 147 32870ft 432kts
05-Nov-19 19:42 27.068024 -112.090610 146 32870ft 432kts
05-Nov-19 19:43 26.965673 -112.019936 147 32870ft 431kts
05-Nov-19 19:44 26.863589 -111.949742 146 32870ft 430kts
05-Nov-19 19:45 26.761565 -111.879527 146 32871ft 430kts
05-Nov-19 19:46 26.659694 -111.809827 146 32870ft 429kts
05-Nov-19 19:47 26.557775 -111.740360 146 32870ft 429kts
05-Nov-19 19:48 26.455798 -111.670525 146 32871ft 428kts
05-Nov-19 19:49 26.354188 -111.601674 146 32871ft 428kts
05-Nov-19 19:50 26.252088 -111.532859 146 32871ft 428kts
05-Nov-19 19:51 26.152340 -111.460407 145 32871ft 428kts
05-Nov-19 19:52 26.049817 -111.392803 148 32871ft 429kts
05-Nov-19 19:53 25.950947 -111.319962 134 32872ft 423kts
05-Nov-19 19:54 25.872613 -111.222855 129 32871ft 421kts
05-Nov-19 19:55 25.792651 -111.127612 132 32872ft 422kts
05-Nov-19 19:56 25.711586 -111.034004 131 32874ft 421kts
05-Nov-19 19:57 25.630845 -110.939473 131 32877ft 421kts
05-Nov-19 19:58 25.550128 -110.845288 131 32880ft 421kts
05-Nov-19 19:59 25.469420 -110.751255 131 32885ft 421kts
05-Nov-19 20:00 25.388749 -110.657276 131 32890ft 421kts
05-Nov-19 20:01 25.308056 -110.563369 131 32896ft 420kts
05-Nov-19 20:02 25.226543 -110.470283 131 32902ft 421kts
05-Nov-19 20:03 25.146032 -110.376991 131 32926ft 420kts
05-Nov-19 20:04 25.065243 -110.283761 131 32930ft 420kts
05-Nov-19 20:05 24.984359 -110.191026 131 32933ft 418kts
05-Nov-19 20:06 24.903774 -110.098381 131 32936ft 419kts
05-Nov-19 20:07 24.823133 -110.006046 131 32938ft 418kts
05-Nov-19 20:08 24.742419 -109.913757 131 32939ft 418kts
05-Nov-19 20:09 24.661790 -109.822086 131 32941ft 416kts
05-Nov-19 20:10 24.587651 -109.737553 131 32179ft 423kts
05-Nov-19 20:11 24.536320 -109.679450 132 30645ft 425kts
05-Nov-19 20:12 24.455246 -109.587437 132 28346ft 420kts
05-Nov-19 20:13 24.375584 -109.496601 131 26088ft 407kts
05-Nov-19 20:14 24.270796 -109.459620 174 23592ft 406kts
05-Nov-19 20:15 24.159667 -109.465691 186 20827ft 398kts
05-Nov-19 20:16 24.053861 -109.489739 191 18394ft 380kts
05-Nov-19 20:17 23.953289 -109.516866 191 16034ft 362kts
05-Nov-19 20:18 23.860355 -109.544722 197 14151ft 336kts
05-Nov-19 20:19 23.768614 -109.580078 198 12531ft 348kts
05-Nov-19 20:20 23.678409 -109.613882 197 10897ft 333kts
05-Nov-19 20:22 23.593942 -109.645368 198 9154ft 299kts
05-Nov-19 20:23 23.516795 -109.673753 198 7574ft 288kts
05-Nov-19 20:24 23.444006 -109.700114 199 6512ft 264kts
05-Nov-19 20:25 23.376569 -109.708950 170 5565ft 244kts
05-Nov-19 20:26 23.310772 -109.692933 168 4561ft 240kts
05-Nov-19 20:27 23.247655 -109.691013 206 3221ft 218kts
05-Nov-19 20:28 23.198784 -109.725811 185 1087ft 204kts
05-Nov-19 20:29 23.154215 -109.720124 147 384ft 72kts
05-Nov-19 20:30 23.151761 -109.720670 354 383ft 26kts
05-Nov-19 20:31 23.159831 -109.720594 18 383ft 15kts
05-Nov-19 20:32 23.162083 -109.718829 81 383ft 3kts
05-Nov-19 20:33 23.162100 -109.718693 82 383ft 0kts
05-Nov-19 20:34 23.162100 -109.718693 82 383ft 0kts
05-Nov-19 20:35 23.162100 -109.718693 82 383ft 0kts
05-Nov-19 20:36 23.162100 -109.718693 82 383ft 0kts

Navigation Log

Ident Type
Flight plan parsing failed, navigation log unavailable